sensor_id;sensor_type;location;lat;lon;timestamp;P1;durP1;ratioP1;P2;durP2;ratioP2
64714;SDS011;51144;53.002;6.506;2022-08-19T00:00:04;2.33;;;1.00;;
64714;SDS011;51144;53.002;6.506;2022-08-19T00:02:34;3.83;;;1.80;;
64714;SDS011;51144;53.002;6.506;2022-08-19T00:05:00;4.45;;;1.90;;
64714;SDS011;51144;53.002;6.506;2022-08-19T00:07:26;3.13;;;2.17;;
64714;SDS011;51144;53.002;6.506;2022-08-19T00:09:51;3.45;;;3.15;;
64714;SDS011;51144;53.002;6.506;2022-08-19T00:12:17;4.10;;;3.17;;
64714;SDS011;51144;53.002;6.506;2022-08-19T00:14:42;5.60;;;3.13;;
64714;SDS011;51144;53.002;6.506;2022-08-19T00:17:08;4.85;;;3.13;;
64714;SDS011;51144;53.002;6.506;2022-08-19T00:19:34;3.63;;;3.08;;
64714;SDS011;51144;53.002;6.506;2022-08-19T00:22:00;6.88;;;2.97;;
64714;SDS011;51144;53.002;6.506;2022-08-19T00:24:27;5.57;;;2.78;;
64714;SDS011;51144;53.002;6.506;2022-08-19T00:26:53;4.68;;;2.08;;
64714;SDS011;51144;53.002;6.506;2022-08-19T00:29:20;5.15;;;2.47;;
64714;SDS011;51144;53.002;6.506;2022-08-19T00:31:46;4.13;;;2.20;;
64714;SDS011;51144;53.002;6.506;2022-08-19T00:34:20;2.00;;;1.33;;
64714;SDS011;51144;53.002;6.506;2022-08-19T00:36:46;1.70;;;1.52;;
64714;SDS011;51144;53.002;6.506;2022-08-19T00:39:16;1.67;;;1.55;;
64714;SDS011;51144;53.002;6.506;2022-08-19T00:41:42;4.40;;;2.90;;
64714;SDS011;51144;53.002;6.506;2022-08-19T00:44:14;1.95;;;1.77;;
64714;SDS011;51144;53.002;6.506;2022-08-19T00:46:46;5.93;;;2.17;;
64714;SDS011;51144;53.002;6.506;2022-08-19T00:51:48;2.90;;;1.58;;
64714;SDS011;51144;53.002;6.506;2022-08-19T00:54:20;5.03;;;1.08;;
64714;SDS011;51144;53.002;6.506;2022-08-19T00:56:46;2.38;;;1.17;;
64714;SDS011;51144;53.002;6.506;2022-08-19T00:59:14;3.53;;;1.65;;
64714;SDS011;51144;53.002;6.506;2022-08-19T01:01:41;2.78;;;1.58;;
64714;SDS011;51144;53.002;6.506;2022-08-19T01:04:08;2.75;;;1.73;;
64714;SDS011;51144;53.002;6.506;2022-08-19T01:06:35;4.47;;;2.28;;
64714;SDS011;51144;53.002;6.506;2022-08-19T01:09:06;2.35;;;2.15;;
64714;SDS011;51144;53.002;6.506;2022-08-19T01:11:34;2.55;;;2.35;;
64714;SDS011;51144;53.002;6.506;2022-08-19T01:14:02;2.90;;;2.10;;
64714;SDS011;51144;53.002;6.506;2022-08-19T01:16:28;2.45;;;2.25;;
64714;SDS011;51144;53.002;6.506;2022-08-19T01:18:56;2.22;;;1.92;;
64714;SDS011;51144;53.002;6.506;2022-08-19T01:21:27;2.35;;;2.15;;
64714;SDS011;51144;53.002;6.506;2022-08-19T01:23:59;2.60;;;2.20;;
64714;SDS011;51144;53.002;6.506;2022-08-19T01:26:25;2.35;;;1.92;;
64714;SDS011;51144;53.002;6.506;2022-08-19T01:28:53;2.83;;;1.38;;
64714;SDS011;51144;53.002;6.506;2022-08-19T01:31:22;3.97;;;2.08;;
64714;SDS011;51144;53.002;6.506;2022-08-19T01:33:51;2.97;;;1.48;;
64714;SDS011;51144;53.002;6.506;2022-08-19T01:36:26;1.80;;;1.67;;
64714;SDS011;51144;53.002;6.506;2022-08-19T01:38:57;2.85;;;1.77;;
64714;SDS011;51144;53.002;6.506;2022-08-19T01:41:23;10.65;;;4.00;;
64714;SDS011;51144;53.002;6.506;2022-08-19T01:43:49;8.30;;;6.57;;
64714;SDS011;51144;53.002;6.506;2022-08-19T01:46:16;9.80;;;6.32;;
64714;SDS011;51144;53.002;6.506;2022-08-19T01:48:42;7.75;;;6.63;;
64714;SDS011;51144;53.002;6.506;2022-08-19T01:51:09;8.55;;;6.47;;
64714;SDS011;51144;53.002;6.506;2022-08-19T01:53:39;11.20;;;6.40;;
64714;SDS011;51144;53.002;6.506;2022-08-19T01:56:06;9.15;;;6.78;;
64714;SDS011;51144;53.002;6.506;2022-08-19T01:58:34;7.38;;;6.28;;
64714;SDS011;51144;53.002;6.506;2022-08-19T02:01:04;7.32;;;6.35;;
64714;SDS011;51144;53.002;6.506;2022-08-19T02:03:30;8.90;;;6.40;;
64714;SDS011;51144;53.002;6.506;2022-08-19T02:05:57;6.20;;;5.60;;
64714;SDS011;51144;53.002;6.506;2022-08-19T02:08:28;6.80;;;6.18;;
64714;SDS011;51144;53.002;6.506;2022-08-19T02:10:55;6.88;;;6.15;;
64714;SDS011;51144;53.002;6.506;2022-08-19T02:13:21;7.63;;;6.10;;
64714;SDS011;51144;53.002;6.506;2022-08-19T02:15:47;7.55;;;6.63;;
64714;SDS011;51144;53.002;6.506;2022-08-19T02:18:13;9.48;;;6.72;;
64714;SDS011;51144;53.002;6.506;2022-08-19T02:20:41;9.02;;;6.82;;
64714;SDS011;51144;53.002;6.506;2022-08-19T02:23:12;14.07;;;8.73;;
64714;SDS011;51144;53.002;6.506;2022-08-19T02:25:38;11.68;;;8.45;;
64714;SDS011;51144;53.002;6.506;2022-08-19T02:28:04;10.57;;;8.23;;
64714;SDS011;51144;53.002;6.506;2022-08-19T02:30:30;9.30;;;8.35;;
64714;SDS011;51144;53.002;6.506;2022-08-19T02:32:56;9.80;;;8.80;;
64714;SDS011;51144;53.002;6.506;2022-08-19T02:35:22;10.10;;;8.52;;
64714;SDS011;51144;53.002;6.506;2022-08-19T02:37:48;12.00;;;8.18;;
64714;SDS011;51144;53.002;6.506;2022-08-19T02:42:59;10.23;;;8.52;;
64714;SDS011;51144;53.002;6.506;2022-08-19T02:45:25;9.55;;;8.68;;
64714;SDS011;51144;53.002;6.506;2022-08-19T02:47:51;9.70;;;8.75;;
64714;SDS011;51144;53.002;6.506;2022-08-19T02:50:17;12.73;;;9.73;;
64714;SDS011;51144;53.002;6.506;2022-08-19T02:52:43;11.02;;;8.35;;
64714;SDS011;51144;53.002;6.506;2022-08-19T02:55:09;9.70;;;8.85;;
64714;SDS011;51144;53.002;6.506;2022-08-19T02:57:35;10.52;;;9.48;;
64714;SDS011;51144;53.002;6.506;2022-08-19T03:00:03;10.75;;;9.02;;
64714;SDS011;51144;53.002;6.506;2022-08-19T03:02:30;12.05;;;9.32;;
64714;SDS011;51144;53.002;6.506;2022-08-19T03:04:56;10.27;;;8.80;;
64714;SDS011;51144;53.002;6.506;2022-08-19T03:07:21;9.63;;;8.70;;
64714;SDS011;51144;53.002;6.506;2022-08-19T03:09:47;10.57;;;9.00;;
64714;SDS011;51144;53.002;6.506;2022-08-19T03:12:13;11.48;;;9.07;;
64714;SDS011;51144;53.002;6.506;2022-08-19T03:14:38;11.98;;;9.48;;
64714;SDS011;51144;53.002;6.506;2022-08-19T03:17:04;9.23;;;8.30;;
64714;SDS011;51144;53.002;6.506;2022-08-19T03:19:30;9.65;;;7.25;;
64714;SDS011;51144;53.002;6.506;2022-08-19T03:21:59;8.27;;;6.80;;
64714;SDS011;51144;53.002;6.506;2022-08-19T03:24:25;7.25;;;6.50;;
64714;SDS011;51144;53.002;6.506;2022-08-19T03:26:54;7.15;;;6.03;;
64714;SDS011;51144;53.002;6.506;2022-08-19T03:29:24;7.60;;;6.43;;
64714;SDS011;51144;53.002;6.506;2022-08-19T03:31:51;7.30;;;6.63;;
64714;SDS011;51144;53.002;6.506;2022-08-19T03:34:18;7.93;;;7.22;;
64714;SDS011;51144;53.002;6.506;2022-08-19T03:36:45;9.15;;;7.72;;
64714;SDS011;51144;53.002;6.506;2022-08-19T03:39:12;8.82;;;8.10;;
64714;SDS011;51144;53.002;6.506;2022-08-19T03:41:39;8.50;;;7.80;;
64714;SDS011;51144;53.002;6.506;2022-08-19T03:44:06;9.93;;;8.30;;
64714;SDS011;51144;53.002;6.506;2022-08-19T03:46:33;9.65;;;8.73;;
64714;SDS011;51144;53.002;6.506;2022-08-19T03:49:06;10.40;;;9.35;;
64714;SDS011;51144;53.002;6.506;2022-08-19T03:51:35;10.93;;;9.85;;
64714;SDS011;51144;53.002;6.506;2022-08-19T03:54:05;11.88;;;10.52;;
64714;SDS011;51144;53.002;6.506;2022-08-19T03:56:33;13.02;;;10.50;;
64714;SDS011;51144;53.002;6.506;2022-08-19T03:59:00;10.85;;;9.85;;
64714;SDS011;51144;53.002;6.506;2022-08-19T04:01:28;13.18;;;11.70;;
64714;SDS011;51144;53.002;6.506;2022-08-19T04:03:55;13.45;;;12.10;;
64714;SDS011;51144;53.002;6.506;2022-08-19T04:08:49;10.98;;;9.77;;
64714;SDS011;51144;53.002;6.506;2022-08-19T04:11:17;10.95;;;9.82;;
64714;SDS011;51144;53.002;6.506;2022-08-19T04:13:48;11.13;;;9.90;;
64714;SDS011;51144;53.002;6.506;2022-08-19T04:16:16;13.13;;;11.55;;
64714;SDS011;51144;53.002;6.506;2022-08-19T04:18:42;18.67;;;12.55;;
64714;SDS011;51144;53.002;6.506;2022-08-19T04:21:08;16.85;;;13.60;;
64714;SDS011;51144;53.002;6.506;2022-08-19T04:23:40;16.48;;;11.60;;
64714;SDS011;51144;53.002;6.506;2022-08-19T04:26:06;14.00;;;12.20;;
64714;SDS011;51144;53.002;6.506;2022-08-19T04:28:31;14.98;;;12.93;;
64714;SDS011;51144;53.002;6.506;2022-08-19T04:30:57;18.35;;;14.02;;
64714;SDS011;51144;53.002;6.506;2022-08-19T04:33:24;14.18;;;12.77;;
64714;SDS011;51144;53.002;6.506;2022-08-19T04:35:50;14.80;;;13.38;;
64714;SDS011;51144;53.002;6.506;2022-08-19T04:38:18;17.83;;;13.95;;
64714;SDS011;51144;53.002;6.506;2022-08-19T04:40:46;18.15;;;14.32;;
64714;SDS011;51144;53.002;6.506;2022-08-19T04:43:32;13.55;;;12.30;;
64714;SDS011;51144;53.002;6.506;2022-08-19T04:45:58;15.13;;;13.20;;
64714;SDS011;51144;53.002;6.506;2022-08-19T04:48:33;13.38;;;12.07;;
64714;SDS011;51144;53.002;6.506;2022-08-19T04:50:59;14.32;;;12.82;;
64714;SDS011;51144;53.002;6.506;2022-08-19T04:53:29;14.70;;;12.90;;
64714;SDS011;51144;53.002;6.506;2022-08-19T04:55:56;14.30;;;12.90;;
64714;SDS011;51144;53.002;6.506;2022-08-19T04:58:26;13.68;;;12.32;;
64714;SDS011;51144;53.002;6.506;2022-08-19T05:00:52;16.55;;;13.38;;
64714;SDS011;51144;53.002;6.506;2022-08-19T05:03:19;16.08;;;14.02;;
64714;SDS011;51144;53.002;6.506;2022-08-19T05:05:45;14.23;;;12.82;;
64714;SDS011;51144;53.002;6.506;2022-08-19T05:08:14;15.45;;;13.85;;
64714;SDS011;51144;53.002;6.506;2022-08-19T05:10:44;14.77;;;13.18;;
64714;SDS011;51144;53.002;6.506;2022-08-19T05:13:15;14.55;;;13.07;;
64714;SDS011;51144;53.002;6.506;2022-08-19T05:15:41;14.70;;;13.10;;
64714;SDS011;51144;53.002;6.506;2022-08-19T05:18:07;13.32;;;12.07;;
64714;SDS011;51144;53.002;6.506;2022-08-19T05:20:52;13.85;;;12.50;;
64714;SDS011;51144;53.002;6.506;2022-08-19T05:26:03;10.95;;;9.93;;
64714;SDS011;51144;53.002;6.506;2022-08-19T05:28:30;11.68;;;10.40;;
64714;SDS011;51144;53.002;6.506;2022-08-19T05:30:56;11.05;;;9.95;;
64714;SDS011;51144;53.002;6.506;2022-08-19T05:33:22;10.15;;;9.15;;
64714;SDS011;51144;53.002;6.506;2022-08-19T05:35:57;9.90;;;9.10;;
64714;SDS011;51144;53.002;6.506;2022-08-19T05:38:23;9.80;;;8.98;;
64714;SDS011;51144;53.002;6.506;2022-08-19T05:40:55;9.18;;;8.27;;
64714;SDS011;51144;53.002;6.506;2022-08-19T05:43:20;10.27;;;9.43;;
64714;SDS011;51144;53.002;6.506;2022-08-19T05:45:46;9.73;;;8.82;;
64714;SDS011;51144;53.002;6.506;2022-08-19T05:48:12;8.80;;;8.05;;
64714;SDS011;51144;53.002;6.506;2022-08-19T05:50:40;8.18;;;7.47;;
64714;SDS011;51144;53.002;6.506;2022-08-19T05:53:07;10.57;;;8.90;;
64714;SDS011;51144;53.002;6.506;2022-08-19T05:55:33;10.13;;;9.10;;
64714;SDS011;51144;53.002;6.506;2022-08-19T05:58:00;10.38;;;9.23;;
64714;SDS011;51144;53.002;6.506;2022-08-19T06:00:26;10.63;;;9.70;;
64714;SDS011;51144;53.002;6.506;2022-08-19T06:02:52;10.35;;;9.45;;
64714;SDS011;51144;53.002;6.506;2022-08-19T06:05:21;10.75;;;9.73;;
64714;SDS011;51144;53.002;6.506;2022-08-19T06:07:47;10.95;;;9.90;;
64714;SDS011;51144;53.002;6.506;2022-08-19T06:10:12;10.35;;;9.00;;
64714;SDS011;51144;53.002;6.506;2022-08-19T06:12:38;9.93;;;8.98;;
64714;SDS011;51144;53.002;6.506;2022-08-19T06:15:05;9.68;;;8.88;;
64714;SDS011;51144;53.002;6.506;2022-08-19T06:17:36;9.45;;;8.65;;
64714;SDS011;51144;53.002;6.506;2022-08-19T06:20:06;10.68;;;8.80;;
64714;SDS011;51144;53.002;6.506;2022-08-19T06:22:41;10.95;;;8.85;;
64714;SDS011;51144;53.002;6.506;2022-08-19T06:25:08;16.70;;;10.23;;
64714;SDS011;51144;53.002;6.506;2022-08-19T06:27:37;11.45;;;9.57;;
64714;SDS011;51144;53.002;6.506;2022-08-19T06:30:03;10.55;;;9.55;;
64714;SDS011;51144;53.002;6.506;2022-08-19T06:32:29;9.50;;;8.77;;
64714;SDS011;51144;53.002;6.506;2022-08-19T06:34:55;9.50;;;8.48;;
64714;SDS011;51144;53.002;6.506;2022-08-19T06:37:20;11.63;;;10.15;;
64714;SDS011;51144;53.002;6.506;2022-08-19T06:39:47;10.23;;;9.18;;
64714;SDS011;51144;53.002;6.506;2022-08-19T06:42:13;10.15;;;9.15;;
64714;SDS011;51144;53.002;6.506;2022-08-19T06:44:41;10.15;;;9.15;;
64714;SDS011;51144;53.002;6.506;2022-08-19T06:47:09;9.35;;;8.55;;
64714;SDS011;51144;53.002;6.506;2022-08-19T06:49:37;10.00;;;9.18;;
64714;SDS011;51144;53.002;6.506;2022-08-19T06:52:03;10.07;;;9.15;;
64714;SDS011;51144;53.002;6.506;2022-08-19T06:54:30;10.05;;;8.88;;
64714;SDS011;51144;53.002;6.506;2022-08-19T06:56:57;9.82;;;8.85;;
64714;SDS011;51144;53.002;6.506;2022-08-19T06:59:25;10.85;;;9.75;;
64714;SDS011;51144;53.002;6.506;2022-08-19T07:01:55;10.00;;;7.72;;
64714;SDS011;51144;53.002;6.506;2022-08-19T07:04:22;10.63;;;9.52;;
64714;SDS011;51144;53.002;6.506;2022-08-19T07:06:58;11.43;;;10.13;;
64714;SDS011;51144;53.002;6.506;2022-08-19T07:09:26;10.20;;;9.27;;
64714;SDS011;51144;53.002;6.506;2022-08-19T07:11:52;10.70;;;9.02;;
64714;SDS011;51144;53.002;6.506;2022-08-19T07:14:19;10.82;;;8.93;;
64714;SDS011;51144;53.002;6.506;2022-08-19T07:16:50;19.67;;;11.13;;
64714;SDS011;51144;53.002;6.506;2022-08-19T07:19:18;21.15;;;13.65;;
64714;SDS011;51144;53.002;6.506;2022-08-19T07:21:45;11.73;;;10.35;;
64714;SDS011;51144;53.002;6.506;2022-08-19T07:24:12;24.83;;;13.40;;
64714;SDS011;51144;53.002;6.506;2022-08-19T07:26:42;10.65;;;9.65;;
64714;SDS011;51144;53.002;6.506;2022-08-19T07:29:08;10.50;;;9.60;;
64714;SDS011;51144;53.002;6.506;2022-08-19T07:31:35;12.18;;;10.27;;
64714;SDS011;51144;53.002;6.506;2022-08-19T07:34:02;10.82;;;8.77;;
64714;SDS011;51144;53.002;6.506;2022-08-19T07:36:35;10.73;;;8.45;;
64714;SDS011;51144;53.002;6.506;2022-08-19T07:39:05;11.52;;;8.60;;
64714;SDS011;51144;53.002;6.506;2022-08-19T07:41:34;10.20;;;8.82;;
64714;SDS011;51144;53.002;6.506;2022-08-19T07:44:01;10.45;;;9.55;;
64714;SDS011;51144;53.002;6.506;2022-08-19T07:46:31;9.25;;;8.27;;
64714;SDS011;51144;53.002;6.506;2022-08-19T07:48:59;9.07;;;8.27;;
64714;SDS011;51144;53.002;6.506;2022-08-19T07:51:25;9.02;;;7.10;;
64714;SDS011;51144;53.002;6.506;2022-08-19T07:53:52;14.18;;;7.28;;
64714;SDS011;51144;53.002;6.506;2022-08-19T07:56:18;8.65;;;7.78;;
64714;SDS011;51144;53.002;6.506;2022-08-19T07:58:45;8.77;;;7.03;;
64714;SDS011;51144;53.002;6.506;2022-08-19T08:01:13;5.95;;;5.45;;
64714;SDS011;51144;53.002;6.506;2022-08-19T08:03:44;6.82;;;5.25;;
64714;SDS011;51144;53.002;6.506;2022-08-19T08:06:29;5.90;;;5.20;;
64714;SDS011;51144;53.002;6.506;2022-08-19T08:09:37;7.45;;;4.72;;
64714;SDS011;51144;53.002;6.506;2022-08-19T08:12:08;5.63;;;5.05;;
64714;SDS011;51144;53.002;6.506;2022-08-19T08:14:41;6.05;;;4.35;;
64714;SDS011;51144;53.002;6.506;2022-08-19T08:17:09;5.30;;;4.70;;
64714;SDS011;51144;53.002;6.506;2022-08-19T08:19:35;6.75;;;6.20;;
64714;SDS011;51144;53.002;6.506;2022-08-19T08:22:02;6.93;;;6.03;;
64714;SDS011;51144;53.002;6.506;2022-08-19T08:24:31;9.27;;;7.88;;
64714;SDS011;51144;53.002;6.506;2022-08-19T08:26:57;10.90;;;9.77;;
64714;SDS011;51144;53.002;6.506;2022-08-19T08:29:25;9.70;;;8.88;;
64714;SDS011;51144;53.002;6.506;2022-08-19T08:31:55;9.88;;;8.98;;
64714;SDS011;51144;53.002;6.506;2022-08-19T08:34:21;10.32;;;9.32;;
64714;SDS011;51144;53.002;6.506;2022-08-19T08:36:53;8.15;;;7.32;;
64714;SDS011;51144;53.002;6.506;2022-08-19T08:39:19;8.95;;;7.75;;
64714;SDS011;51144;53.002;6.506;2022-08-19T08:44:19;7.55;;;6.82;;
64714;SDS011;51144;53.002;6.506;2022-08-19T08:46:49;7.95;;;6.63;;
64714;SDS011;51144;53.002;6.506;2022-08-19T08:52:07;7.15;;;6.45;;
64714;SDS011;51144;53.002;6.506;2022-08-19T08:54:40;6.43;;;5.85;;
64714;SDS011;51144;53.002;6.506;2022-08-19T08:57:10;7.00;;;5.43;;
64714;SDS011;51144;53.002;6.506;2022-08-19T08:59:47;6.63;;;5.55;;
64714;SDS011;51144;53.002;6.506;2022-08-19T09:02:17;7.38;;;5.97;;
64714;SDS011;51144;53.002;6.506;2022-08-19T09:04:43;6.20;;;5.60;;
64714;SDS011;51144;53.002;6.506;2022-08-19T09:15:34;8.18;;;6.38;;
64714;SDS011;51144;53.002;6.506;2022-08-19T09:18:05;6.43;;;5.47;;
64714;SDS011;51144;53.002;6.506;2022-08-19T09:20:33;6.32;;;5.40;;
64714;SDS011;51144;53.002;6.506;2022-08-19T09:22:58;7.20;;;6.47;;
64714;SDS011;51144;53.002;6.506;2022-08-19T09:25:30;8.45;;;7.40;;
64714;SDS011;51144;53.002;6.506;2022-08-19T09:27:56;6.03;;;5.43;;
64714;SDS011;51144;53.002;6.506;2022-08-19T09:30:23;8.57;;;6.10;;
64714;SDS011;51144;53.002;6.506;2022-08-19T09:32:54;6.20;;;5.80;;
64714;SDS011;51144;53.002;6.506;2022-08-19T09:35:21;6.82;;;6.10;;
64714;SDS011;51144;53.002;6.506;2022-08-19T09:37:49;6.47;;;6.00;;
64714;SDS011;51144;53.002;6.506;2022-08-19T09:40:15;7.05;;;6.45;;
64714;SDS011;51144;53.002;6.506;2022-08-19T09:42:43;5.68;;;5.18;;
64714;SDS011;51144;53.002;6.506;2022-08-19T09:45:15;7.15;;;6.65;;
64714;SDS011;51144;53.002;6.506;2022-08-19T09:47:42;8.02;;;7.32;;
64714;SDS011;51144;53.002;6.506;2022-08-19T09:50:09;8.15;;;7.43;;
64714;SDS011;51144;53.002;6.506;2022-08-19T09:52:36;9.93;;;7.50;;
64714;SDS011;51144;53.002;6.506;2022-08-19T09:55:06;6.88;;;6.28;;
64714;SDS011;51144;53.002;6.506;2022-08-19T09:57:33;5.82;;;5.38;;
64714;SDS011;51144;53.002;6.506;2022-08-19T09:59:59;8.20;;;5.82;;
64714;SDS011;51144;53.002;6.506;2022-08-19T10:02:24;6.88;;;6.10;;
64714;SDS011;51144;53.002;6.506;2022-08-19T10:04:50;7.13;;;6.43;;
64714;SDS011;51144;53.002;6.506;2022-08-19T10:07:36;7.93;;;7.28;;
64714;SDS011;51144;53.002;6.506;2022-08-19T10:10:05;6.32;;;5.72;;
64714;SDS011;51144;53.002;6.506;2022-08-19T10:12:32;6.22;;;5.78;;
64714;SDS011;51144;53.002;6.506;2022-08-19T10:14:58;5.00;;;4.65;;
64714;SDS011;51144;53.002;6.506;2022-08-19T10:17:25;6.20;;;5.65;;
64714;SDS011;51144;53.002;6.506;2022-08-19T10:19:51;6.68;;;4.95;;
64714;SDS011;51144;53.002;6.506;2022-08-19T10:22:17;6.60;;;6.07;;
64714;SDS011;51144;53.002;6.506;2022-08-19T10:24:45;7.47;;;6.88;;
64714;SDS011;51144;53.002;6.506;2022-08-19T10:27:11;5.93;;;5.32;;
64714;SDS011;51144;53.002;6.506;2022-08-19T10:29:38;6.82;;;6.32;;
64714;SDS011;51144;53.002;6.506;2022-08-19T10:32:05;7.68;;;6.95;;
64714;SDS011;51144;53.002;6.506;2022-08-19T10:34:34;7.18;;;6.57;;
64714;SDS011;51144;53.002;6.506;2022-08-19T10:37:04;6.82;;;6.22;;
64714;SDS011;51144;53.002;6.506;2022-08-19T10:39:31;7.20;;;6.57;;
64714;SDS011;51144;53.002;6.506;2022-08-19T10:41:58;7.38;;;6.75;;
64714;SDS011;51144;53.002;6.506;2022-08-19T10:44:24;7.63;;;6.93;;
64714;SDS011;51144;53.002;6.506;2022-08-19T10:46:50;8.88;;;7.97;;
64714;SDS011;51144;53.002;6.506;2022-08-19T10:49:17;9.05;;;7.95;;
64714;SDS011;51144;53.002;6.506;2022-08-19T10:51:43;9.02;;;8.23;;
64714;SDS011;51144;53.002;6.506;2022-08-19T10:54:32;8.27;;;7.68;;
64714;SDS011;51144;53.002;6.506;2022-08-19T10:57:16;7.28;;;6.68;;
64714;SDS011;51144;53.002;6.506;2022-08-19T10:59:42;8.52;;;7.82;;
64714;SDS011;51144;53.002;6.506;2022-08-19T11:02:08;7.75;;;7.00;;
64714;SDS011;51144;53.002;6.506;2022-08-19T11:04:36;6.57;;;6.07;;
64714;SDS011;51144;53.002;6.506;2022-08-19T11:07:02;8.73;;;8.13;;
64714;SDS011;51144;53.002;6.506;2022-08-19T11:09:29;9.18;;;8.35;;
64714;SDS011;51144;53.002;6.506;2022-08-19T11:11:55;8.93;;;8.32;;
64714;SDS011;51144;53.002;6.506;2022-08-19T11:14:21;10.95;;;9.75;;
64714;SDS011;51144;53.002;6.506;2022-08-19T11:16:48;11.30;;;10.35;;
64714;SDS011;51144;53.002;6.506;2022-08-19T11:19:16;11.73;;;10.70;;
64714;SDS011;51144;53.002;6.506;2022-08-19T11:21:45;9.95;;;9.02;;
64714;SDS011;51144;53.002;6.506;2022-08-19T11:24:14;9.38;;;8.68;;
64714;SDS011;51144;53.002;6.506;2022-08-19T11:26:45;8.55;;;7.85;;
64714;SDS011;51144;53.002;6.506;2022-08-19T11:29:14;9.75;;;9.02;;
64714;SDS011;51144;53.002;6.506;2022-08-19T11:31:41;9.50;;;8.68;;
64714;SDS011;51144;53.002;6.506;2022-08-19T11:34:11;8.63;;;8.02;;
64714;SDS011;51144;53.002;6.506;2022-08-19T11:36:42;11.40;;;9.50;;
64714;SDS011;51144;53.002;6.506;2022-08-19T11:39:10;8.82;;;8.13;;
64714;SDS011;51144;53.002;6.506;2022-08-19T11:41:38;9.10;;;8.25;;
64714;SDS011;51144;53.002;6.506;2022-08-19T11:44:04;5.85;;;5.32;;
64714;SDS011;51144;53.002;6.506;2022-08-19T11:46:30;6.57;;;5.97;;
64714;SDS011;51144;53.002;6.506;2022-08-19T11:48:56;7.50;;;6.28;;
64714;SDS011;51144;53.002;6.506;2022-08-19T11:51:24;8.98;;;7.15;;
64714;SDS011;51144;53.002;6.506;2022-08-19T11:53:51;7.45;;;6.75;;
64714;SDS011;51144;53.002;6.506;2022-08-19T11:56:18;6.85;;;6.18;;
64714;SDS011;51144;53.002;6.506;2022-08-19T11:58:44;6.88;;;6.25;;
64714;SDS011;51144;53.002;6.506;2022-08-19T12:01:11;5.10;;;4.70;;
64714;SDS011;51144;53.002;6.506;2022-08-19T12:03:40;8.57;;;5.07;;
64714;SDS011;51144;53.002;6.506;2022-08-19T12:06:07;10.45;;;4.93;;
64714;SDS011;51144;53.002;6.506;2022-08-19T12:08:34;5.97;;;4.45;;
64714;SDS011;51144;53.002;6.506;2022-08-19T12:11:00;5.53;;;5.10;;
64714;SDS011;51144;53.002;6.506;2022-08-19T12:13:26;4.90;;;3.35;;
64714;SDS011;51144;53.002;6.506;2022-08-19T12:15:55;4.38;;;2.78;;
64714;SDS011;51144;53.002;6.506;2022-08-19T12:18:22;2.10;;;1.50;;
64714;SDS011;51144;53.002;6.506;2022-08-19T12:20:51;2.47;;;1.27;;
64714;SDS011;51144;53.002;6.506;2022-08-19T12:23:19;3.25;;;1.67;;
64714;SDS011;51144;53.002;6.506;2022-08-19T12:25:46;6.25;;;2.13;;
64714;SDS011;51144;53.002;6.506;2022-08-19T12:28:17;5.60;;;2.10;;
64714;SDS011;51144;53.002;6.506;2022-08-19T12:30:47;3.28;;;1.63;;
64714;SDS011;51144;53.002;6.506;2022-08-19T12:33:16;2.20;;;1.67;;
64714;SDS011;51144;53.002;6.506;2022-08-19T12:35:42;2.58;;;1.65;;
64714;SDS011;51144;53.002;6.506;2022-08-19T12:38:12;2.63;;;2.42;;
64714;SDS011;51144;53.002;6.506;2022-08-19T12:40:39;3.20;;;2.30;;
64714;SDS011;51144;53.002;6.506;2022-08-19T12:43:05;3.20;;;2.33;;
64714;SDS011;51144;53.002;6.506;2022-08-19T12:45:32;5.72;;;2.35;;
64714;SDS011;51144;53.002;6.506;2022-08-19T12:47:58;3.88;;;2.75;;
64714;SDS011;51144;53.002;6.506;2022-08-19T12:50:24;3.75;;;3.05;;
64714;SDS011;51144;53.002;6.506;2022-08-19T12:52:49;7.47;;;3.08;;
64714;SDS011;51144;53.002;6.506;2022-08-19T12:55:15;4.70;;;2.97;;
64714;SDS011;51144;53.002;6.506;2022-08-19T12:57:44;6.30;;;2.88;;
64714;SDS011;51144;53.002;6.506;2022-08-19T13:00:11;3.08;;;2.85;;
64714;SDS011;51144;53.002;6.506;2022-08-19T13:02:39;4.78;;;3.03;;
64714;SDS011;51144;53.002;6.506;2022-08-19T13:05:09;3.92;;;3.53;;
64714;SDS011;51144;53.002;6.506;2022-08-19T13:07:41;4.30;;;3.90;;
64714;SDS011;51144;53.002;6.506;2022-08-19T13:10:09;4.72;;;4.32;;
64714;SDS011;51144;53.002;6.506;2022-08-19T13:12:37;9.73;;;5.20;;
64714;SDS011;51144;53.002;6.506;2022-08-19T13:15:12;6.53;;;5.03;;
64714;SDS011;51144;53.002;6.506;2022-08-19T13:17:39;6.72;;;5.90;;
64714;SDS011;51144;53.002;6.506;2022-08-19T13:20:05;7.93;;;7.22;;
64714;SDS011;51144;53.002;6.506;2022-08-19T13:22:35;8.75;;;7.85;;
64714;SDS011;51144;53.002;6.506;2022-08-19T13:25:03;9.20;;;7.30;;
64714;SDS011;51144;53.002;6.506;2022-08-19T13:27:30;8.95;;;8.10;;
64714;SDS011;51144;53.002;6.506;2022-08-19T13:29:55;13.93;;;12.63;;
64714;SDS011;51144;53.002;6.506;2022-08-19T13:32:39;19.42;;;17.45;;
64714;SDS011;51144;53.002;6.506;2022-08-19T13:35:23;22.45;;;19.67;;
64714;SDS011;51144;53.002;6.506;2022-08-19T13:37:49;19.30;;;17.50;;
64714;SDS011;51144;53.002;6.506;2022-08-19T13:40:19;18.98;;;16.95;;
64714;SDS011;51144;53.002;6.506;2022-08-19T13:45:16;19.60;;;17.20;;
64714;SDS011;51144;53.002;6.506;2022-08-19T13:47:48;21.13;;;17.95;;
64714;SDS011;51144;53.002;6.506;2022-08-19T13:50:19;21.48;;;19.27;;
64714;SDS011;51144;53.002;6.506;2022-08-19T13:52:48;19.83;;;17.83;;
64714;SDS011;51144;53.002;6.506;2022-08-19T13:55:14;20.60;;;17.05;;
64714;SDS011;51144;53.002;6.506;2022-08-19T13:57:43;22.17;;;17.85;;
64714;SDS011;51144;53.002;6.506;2022-08-19T14:00:10;18.70;;;16.85;;
64714;SDS011;51144;53.002;6.506;2022-08-19T14:02:38;19.45;;;17.08;;
64714;SDS011;51144;53.002;6.506;2022-08-19T14:05:05;16.65;;;15.05;;
64714;SDS011;51144;53.002;6.506;2022-08-19T14:07:32;18.98;;;16.10;;
64714;SDS011;51144;53.002;6.506;2022-08-19T14:09:58;21.10;;;15.57;;
64714;SDS011;51144;53.002;6.506;2022-08-19T14:12:24;15.27;;;13.45;;
64714;SDS011;51144;53.002;6.506;2022-08-19T14:14:49;14.35;;;12.85;;
64714;SDS011;51144;53.002;6.506;2022-08-19T14:17:15;13.65;;;12.23;;
64714;SDS011;51144;53.002;6.506;2022-08-19T14:19:41;16.55;;;14.95;;
64714;SDS011;51144;53.002;6.506;2022-08-19T14:22:07;16.35;;;14.65;;
64714;SDS011;51144;53.002;6.506;2022-08-19T14:24:32;19.35;;;15.20;;
64714;SDS011;51144;53.002;6.506;2022-08-19T14:26:58;16.30;;;14.60;;
64714;SDS011;51144;53.002;6.506;2022-08-19T14:29:24;16.80;;;15.07;;
64714;SDS011;51144;53.002;6.506;2022-08-19T14:31:50;19.30;;;15.25;;
64714;SDS011;51144;53.002;6.506;2022-08-19T14:34:16;16.67;;;15.07;;
64714;SDS011;51144;53.002;6.506;2022-08-19T14:36:41;17.60;;;15.90;;
64714;SDS011;51144;53.002;6.506;2022-08-19T14:39:07;19.05;;;17.17;;
64714;SDS011;51144;53.002;6.506;2022-08-19T14:41:35;16.58;;;14.88;;
64714;SDS011;51144;53.002;6.506;2022-08-19T14:44:04;15.68;;;14.15;;
64714;SDS011;51144;53.002;6.506;2022-08-19T14:46:29;14.13;;;12.43;;
64714;SDS011;51144;53.002;6.506;2022-08-19T14:48:55;12.70;;;10.82;;
64714;SDS011;51144;53.002;6.506;2022-08-19T14:51:22;10.15;;;9.15;;
64714;SDS011;51144;53.002;6.506;2022-08-19T14:53:48;8.95;;;8.05;;
64714;SDS011;51144;53.002;6.506;2022-08-19T14:56:16;11.25;;;8.45;;
64714;SDS011;51144;53.002;6.506;2022-08-19T14:58:47;6.70;;;5.43;;
64714;SDS011;51144;53.002;6.506;2022-08-19T15:01:16;10.90;;;8.70;;
64714;SDS011;51144;53.002;6.506;2022-08-19T15:03:42;12.05;;;10.95;;
64714;SDS011;51144;53.002;6.506;2022-08-19T15:06:08;15.77;;;13.82;;
64714;SDS011;51144;53.002;6.506;2022-08-19T15:08:35;17.95;;;15.07;;
64714;SDS011;51144;53.002;6.506;2022-08-19T15:11:06;14.98;;;13.43;;